GPD731 KTEB-KMVY
Flight info
| Callsign | GPD731 |
|---|---|
| Flight time | 0h 48m |
| Altitude | 23000 |
| Route | BREZY V39 CMK BAYYS SEALL V188 GON V374 MVY |
| Aircraft | PC12/L-SDFGRWY/S |
Departure
| Time | 2026-05-07 05:51 |
|---|---|
| Airport | Teterboro Airport (KTEB) |
Arrival
| Time | 2026-05-07 06:40 |
|---|---|
| Airport | Martha's Vineyard Airport (KMVY) |
| Time | Latitude | Longitude | Altitude | Speed | Heading |
|---|---|---|---|---|---|
| 2026-05-07 05:22 | 40.84665 | -74.06721 | 12 ft | 0 kts | 228° |
| 2026-05-07 05:44 | 40.84672 | -74.06752 | 12 ft | 9 kts | 341° |
| 2026-05-07 05:44 | 40.84754 | -74.06696 | 12 ft | 18 kts | 45° |
| 2026-05-07 05:44 | 40.84853 | -74.06553 | 12 ft | 22 kts | 47° |
| 2026-05-07 05:44 | 40.84849 | -74.06429 | 12 ft | 17 kts | 128° |
| 2026-05-07 05:45 | 40.84763 | -74.06286 | 12 ft | 22 kts | 127° |
| 2026-05-07 05:45 | 40.84661 | -74.06129 | 11 ft | 17 kts | 165° |
| 2026-05-07 05:45 | 40.84534 | -74.06136 | 11 ft | 19 kts | 184° |
| 2026-05-07 05:45 | 40.84395 | -74.06144 | 11 ft | 21 kts | 184° |
| 2026-05-07 05:46 | 40.84246 | -74.06156 | 11 ft | 22 kts | 184° |
| 2026-05-07 05:46 | 40.84099 | -74.06167 | 11 ft | 15 kts | 182° |
| 2026-05-07 05:46 | 40.84039 | -74.06159 | 11 ft | 5 kts | 127° |
| 2026-05-07 05:46 | 40.84038 | -74.06155 | 11 ft | 0 kts | 116° |
| 2026-05-07 05:49 | 40.84035 | -74.06129 | 11 ft | 9 kts | 89° |
| 2026-05-07 05:50 | 40.84048 | -74.06027 | 11 ft | 11 kts | 24° |
| 2026-05-07 05:50 | 40.84062 | -74.06024 | 11 ft | 0 kts | 4° |
| 2026-05-07 05:50 | 40.84111 | -74.06022 | 11 ft | 27 kts | 2° |
| 2026-05-07 05:50 | 40.84467 | -74.05997 | 12 ft | 76 kts | 3° |
| 2026-05-07 05:51 | 40.85107 | -74.05957 | 123 ft | 100 kts | 3° |
| 2026-05-07 05:51 | 40.85818 | -74.05873 | 414 ft | 108 kts | 7° |
| 2026-05-07 05:51 | 40.86669 | -74.05741 | 628 ft | 135 kts | 5° |
| 2026-05-07 05:51 | 40.87578 | -74.05653 | 1186 ft | 133 kts | 14° |
| 2026-05-07 05:52 | 40.88322 | -74.04995 | 1692 ft | 136 kts | 56° |
| 2026-05-07 05:52 | 40.88720 | -74.03830 | 2217 ft | 139 kts | 70° |
| 2026-05-07 05:52 | 40.89067 | -74.02638 | 2851 ft | 140 kts | 69° |
| 2026-05-07 05:52 | 40.89445 | -74.01443 | 3475 ft | 142 kts | 67° |
| 2026-05-07 05:53 | 40.89865 | -74.00249 | 4101 ft | 144 kts | 65° |
| 2026-05-07 05:53 | 40.90311 | -73.99055 | 4734 ft | 146 kts | 64° |
| 2026-05-07 05:53 | 40.90766 | -73.97854 | 5377 ft | 147 kts | 64° |
| 2026-05-07 05:53 | 40.91228 | -73.96647 | 6022 ft | 148 kts | 64° |
| 2026-05-07 05:54 | 40.91695 | -73.95431 | 6658 ft | 149 kts | 64° |
| 2026-05-07 05:54 | 40.92197 | -73.94121 | 6914 ft | 178 kts | 64° |
| 2026-05-07 05:54 | 40.92799 | -73.92525 | 6918 ft | 207 kts | 64° |
| 2026-05-07 05:54 | 40.93474 | -73.90742 | 6917 ft | 225 kts | 64° |
| 2026-05-07 05:55 | 40.94200 | -73.88838 | 6917 ft | 237 kts | 64° |
| 2026-05-07 05:55 | 40.94954 | -73.86871 | 6915 ft | 242 kts | 63° |
| 2026-05-07 05:55 | 40.95722 | -73.84871 | 6915 ft | 245 kts | 63° |
| 2026-05-07 05:55 | 40.96497 | -73.82852 | 6914 ft | 247 kts | 63° |
| 2026-05-07 05:56 | 40.97276 | -73.80822 | 6914 ft | 248 kts | 63° |
| 2026-05-07 05:56 | 40.98056 | -73.78787 | 6914 ft | 248 kts | 63° |
| 2026-05-07 05:56 | 40.98769 | -73.76716 | 6913 ft | 246 kts | 71° |
| 2026-05-07 05:56 | 40.99263 | -73.74567 | 6917 ft | 246 kts | 74° |
| 2026-05-07 05:57 | 40.99703 | -73.72400 | 6914 ft | 247 kts | 75° |
| 2026-05-07 05:57 | 41.00141 | -73.70201 | 6914 ft | 248 kts | 76° |
| 2026-05-07 05:57 | 41.00587 | -73.67984 | 6914 ft | 250 kts | 75° |
| 2026-05-07 05:57 | 41.01041 | -73.65762 | 6913 ft | 251 kts | 75° |
| 2026-05-07 05:58 | 41.01500 | -73.63528 | 6914 ft | 251 kts | 75° |
| 2026-05-07 05:58 | 41.01959 | -73.61300 | 6914 ft | 251 kts | 75° |
| 2026-05-07 05:58 | 41.02420 | -73.59068 | 6914 ft | 251 kts | 75° |
| 2026-05-07 05:58 | 41.02881 | -73.56835 | 6913 ft | 251 kts | 75° |
| 2026-05-07 05:59 | 41.03342 | -73.54603 | 6914 ft | 251 kts | 75° |
| 2026-05-07 05:59 | 41.03522 | -73.53731 | 6914 ft | 251 kts | 75° |
| 2026-05-07 05:59 | 41.03758 | -73.52586 | 6914 ft | 250 kts | 75° |
| 2026-05-07 05:59 | 41.04036 | -73.51238 | 6913 ft | 249 kts | 75° |
| 2026-05-07 06:00 | 41.04489 | -73.49026 | 6916 ft | 248 kts | 75° |
| 2026-05-07 06:00 | 41.04940 | -73.46825 | 6913 ft | 247 kts | 75° |
| 2026-05-07 06:00 | 41.05389 | -73.44630 | 6913 ft | 247 kts | 75° |
| 2026-05-07 06:00 | 41.05839 | -73.42438 | 6920 ft | 246 kts | 75° |
| 2026-05-07 06:01 | 41.06288 | -73.40248 | 6916 ft | 246 kts | 75° |
| 2026-05-07 06:01 | 41.06731 | -73.38083 | 6919 ft | 246 kts | 75° |
| 2026-05-07 06:01 | 41.07183 | -73.35881 | 6919 ft | 253 kts | 76° |
| 2026-05-07 06:01 | 41.07659 | -73.33554 | 6883 ft | 269 kts | 77° |
| 2026-05-07 06:02 | 41.08147 | -73.31143 | 6871 ft | 279 kts | 77° |
| 2026-05-07 06:02 | 41.08653 | -73.28641 | 6854 ft | 283 kts | 77° |
| 2026-05-07 06:02 | 41.09165 | -73.26109 | 6850 ft | 285 kts | 77° |
| 2026-05-07 06:02 | 41.09680 | -73.23568 | 6848 ft | 286 kts | 77° |
| 2026-05-07 06:03 | 41.10194 | -73.21030 | 6895 ft | 284 kts | 77° |
| 2026-05-07 06:03 | 41.10710 | -73.18487 | 6902 ft | 286 kts | 77° |
| 2026-05-07 06:03 | 41.11224 | -73.15950 | 7038 ft | 282 kts | 77° |
| 2026-05-07 06:03 | 41.11727 | -73.13475 | 7306 ft | 275 kts | 77° |
| 2026-05-07 06:04 | 41.12221 | -73.11043 | 7578 ft | 271 kts | 77° |
| 2026-05-07 06:04 | 41.12709 | -73.08635 | 7851 ft | 269 kts | 77° |
| 2026-05-07 06:04 | 41.13193 | -73.06242 | 8127 ft | 268 kts | 77° |
| 2026-05-07 06:04 | 41.13674 | -73.03859 | 8401 ft | 267 kts | 78° |
| 2026-05-07 06:05 | 41.14150 | -73.01499 | 8844 ft | 259 kts | 77° |
| 2026-05-07 06:05 | 41.14610 | -72.99229 | 9364 ft | 251 kts | 78° |
| 2026-05-07 06:05 | 41.15057 | -72.97021 | 9877 ft | 245 kts | 78° |
| 2026-05-07 06:05 | 41.15495 | -72.94854 | 10334 ft | 241 kts | 78° |
| 2026-05-07 06:06 | 41.15925 | -72.92723 | 10814 ft | 237 kts | 78° |
| 2026-05-07 06:06 | 41.16348 | -72.90621 | 11302 ft | 234 kts | 79° |
| 2026-05-07 06:06 | 41.16767 | -72.88538 | 11800 ft | 233 kts | 79° |
| 2026-05-07 06:06 | 41.17182 | -72.86465 | 12306 ft | 232 kts | 79° |
| 2026-05-07 06:07 | 41.17596 | -72.84394 | 12820 ft | 232 kts | 80° |
| 2026-05-07 06:07 | 41.18019 | -72.82236 | 12961 ft | 254 kts | 80° |
| 2026-05-07 06:07 | 41.18472 | -72.79875 | 12982 ft | 273 kts | 80° |
| 2026-05-07 06:07 | 41.18956 | -72.77360 | 12991 ft | 289 kts | 79° |
| 2026-05-07 06:08 | 41.19467 | -72.74731 | 12994 ft | 299 kts | 79° |
| 2026-05-07 06:08 | 41.19998 | -72.72023 | 12995 ft | 306 kts | 79° |
| 2026-05-07 06:08 | 41.20541 | -72.69269 | 12995 ft | 310 kts | 79° |
| 2026-05-07 06:08 | 41.21092 | -72.66483 | 12997 ft | 313 kts | 79° |
| 2026-05-07 06:09 | 41.21649 | -72.63673 | 12994 ft | 315 kts | 79° |
| 2026-05-07 06:09 | 41.22206 | -72.60852 | 12990 ft | 317 kts | 79° |
| 2026-05-07 06:09 | 41.22765 | -72.58021 | 12982 ft | 317 kts | 78° |
| 2026-05-07 06:09 | 41.23324 | -72.55185 | 12987 ft | 317 kts | 78° |
| 2026-05-07 06:10 | 41.23881 | -72.52352 | 12984 ft | 317 kts | 78° |
| 2026-05-07 06:10 | 41.24437 | -72.49519 | 12990 ft | 317 kts | 78° |
| 2026-05-07 06:10 | 41.24991 | -72.46687 | 12992 ft | 317 kts | 78° |
| 2026-05-07 06:10 | 41.25546 | -72.43850 | 13025 ft | 317 kts | 78° |
| 2026-05-07 06:11 | 41.26101 | -72.41006 | 13007 ft | 319 kts | 78° |
| 2026-05-07 06:11 | 41.26657 | -72.38150 | 12996 ft | 319 kts | 78° |
| 2026-05-07 06:11 | 41.27213 | -72.35295 | 12995 ft | 319 kts | 78° |
| 2026-05-07 06:11 | 41.27768 | -72.32440 | 12993 ft | 319 kts | 78° |
| 2026-05-07 06:12 | 41.28314 | -72.29628 | 12993 ft | 319 kts | 78° |
| 2026-05-07 06:12 | 41.28867 | -72.26774 | 12994 ft | 319 kts | 78° |
| 2026-05-07 06:12 | 41.29420 | -72.23919 | 12982 ft | 319 kts | 79° |
| 2026-05-07 06:12 | 41.29972 | -72.21060 | 12990 ft | 320 kts | 79° |
| 2026-05-07 06:13 | 41.30525 | -72.18196 | 12962 ft | 320 kts | 79° |
| 2026-05-07 06:13 | 41.31078 | -72.15328 | 12961 ft | 320 kts | 79° |
| 2026-05-07 06:13 | 41.31630 | -72.12459 | 12963 ft | 320 kts | 79° |
| 2026-05-07 06:13 | 41.32182 | -72.09583 | 12966 ft | 320 kts | 79° |
| 2026-05-07 06:14 | 41.32703 | -72.06714 | 12978 ft | 319 kts | 82° |
| 2026-05-07 06:14 | 41.33072 | -72.03818 | 12983 ft | 317 kts | 87° |
| 2026-05-07 06:14 | 41.33248 | -72.01282 | 12988 ft | 315 kts | 91° |
| 2026-05-07 06:14 | 41.33400 | -71.98368 | 12989 ft | 316 kts | 91° |
| 2026-05-07 06:15 | 41.33554 | -71.95453 | 12987 ft | 316 kts | 91° |
| 2026-05-07 06:15 | 41.33707 | -71.92534 | 12991 ft | 316 kts | 91° |
| 2026-05-07 06:15 | 41.33858 | -71.89614 | 12976 ft | 316 kts | 91° |
| 2026-05-07 06:15 | 41.34006 | -71.86708 | 12984 ft | 315 kts | 91° |
| 2026-05-07 06:16 | 41.34153 | -71.83807 | 12987 ft | 314 kts | 91° |
| 2026-05-07 06:16 | 41.34299 | -71.80906 | 12988 ft | 313 kts | 91° |
| 2026-05-07 06:16 | 41.34444 | -71.78015 | 12990 ft | 313 kts | 91° |
| 2026-05-07 06:16 | 41.34587 | -71.75123 | 12991 ft | 313 kts | 91° |
| 2026-05-07 06:17 | 41.34729 | -71.72230 | 12989 ft | 313 kts | 91° |
| 2026-05-07 06:17 | 41.34871 | -71.69340 | 12989 ft | 313 kts | 91° |
| 2026-05-07 06:17 | 41.35011 | -71.66452 | 12990 ft | 313 kts | 91° |
| 2026-05-07 06:17 | 41.35149 | -71.63600 | 12992 ft | 313 kts | 91° |
| 2026-05-07 06:18 | 41.35289 | -71.60676 | 12994 ft | 313 kts | 91° |
| 2026-05-07 06:18 | 41.35426 | -71.57827 | 12997 ft | 313 kts | 91° |
| 2026-05-07 06:18 | 41.35563 | -71.54940 | 12986 ft | 312 kts | 91° |
| 2026-05-07 06:18 | 41.35700 | -71.52063 | 12997 ft | 312 kts | 91° |
| 2026-05-07 06:19 | 41.35835 | -71.49184 | 13002 ft | 311 kts | 91° |
| 2026-05-07 06:19 | 41.35970 | -71.46303 | 13005 ft | 311 kts | 91° |
| 2026-05-07 06:19 | 41.36104 | -71.43426 | 13007 ft | 311 kts | 91° |
| 2026-05-07 06:19 | 41.36238 | -71.40548 | 13007 ft | 311 kts | 91° |
| 2026-05-07 06:20 | 41.36371 | -71.37673 | 13009 ft | 311 kts | 91° |
| 2026-05-07 06:20 | 41.36504 | -71.34793 | 13010 ft | 311 kts | 91° |
| 2026-05-07 06:20 | 41.36636 | -71.31918 | 13011 ft | 311 kts | 91° |
| 2026-05-07 06:20 | 41.36767 | -71.29041 | 13012 ft | 311 kts | 91° |
| 2026-05-07 06:21 | 41.36895 | -71.26164 | 13015 ft | 311 kts | 91° |
| 2026-05-07 06:21 | 41.37022 | -71.23288 | 13018 ft | 311 kts | 91° |
| 2026-05-07 06:21 | 41.37149 | -71.20414 | 13019 ft | 311 kts | 91° |
| 2026-05-07 06:21 | 41.37384 | -71.17553 | 12949 ft | 316 kts | 76° |
| 2026-05-07 06:22 | 41.38425 | -71.14961 | 12690 ft | 321 kts | 52° |
| 2026-05-07 06:22 | 41.41240 | -71.10265 | 12183 ft | 325 kts | 47° |
| 2026-05-07 06:22 | 41.42687 | -71.07969 | 11928 ft | 323 kts | 47° |
| 2026-05-07 06:23 | 41.44128 | -71.05694 | 11698 ft | 320 kts | 46° |
| 2026-05-07 06:23 | 41.45556 | -71.03428 | 11449 ft | 318 kts | 46° |
| 2026-05-07 06:23 | 41.46978 | -71.01174 | 11198 ft | 317 kts | 46° |
| 2026-05-07 06:23 | 41.48392 | -70.98934 | 10954 ft | 315 kts | 46° |
| 2026-05-07 06:24 | 41.49805 | -70.96699 | 10703 ft | 314 kts | 46° |
| 2026-05-07 06:24 | 41.51214 | -70.94472 | 10459 ft | 314 kts | 46° |
| 2026-05-07 06:24 | 41.52618 | -70.92254 | 10219 ft | 312 kts | 46° |
| 2026-05-07 06:24 | 41.54017 | -70.90040 | 9985 ft | 311 kts | 46° |
| 2026-05-07 06:25 | 41.55411 | -70.87835 | 9728 ft | 310 kts | 46° |
| 2026-05-07 06:25 | 41.56771 | -70.85669 | 9469 ft | 307 kts | 46° |
| 2026-05-07 06:25 | 41.58142 | -70.83489 | 9084 ft | 306 kts | 46° |
| 2026-05-07 06:25 | 41.59512 | -70.81326 | 8573 ft | 303 kts | 46° |
| 2026-05-07 06:26 | 41.60866 | -70.79191 | 8077 ft | 300 kts | 46° |
| 2026-05-07 06:26 | 41.62212 | -70.77079 | 7579 ft | 297 kts | 46° |
| 2026-05-07 06:26 | 41.63552 | -70.74996 | 7086 ft | 294 kts | 46° |
| 2026-05-07 06:26 | 41.64882 | -70.72941 | 6620 ft | 291 kts | 46° |
| 2026-05-07 06:27 | 41.66211 | -70.70909 | 6143 ft | 289 kts | 46° |
| 2026-05-07 06:27 | 41.67537 | -70.68900 | 5638 ft | 287 kts | 46° |
| 2026-05-07 06:27 | 41.68861 | -70.66915 | 5139 ft | 285 kts | 46° |
| 2026-05-07 06:27 | 41.70166 | -70.64938 | 4637 ft | 280 kts | 51° |
| 2026-05-07 06:28 | 41.70853 | -70.62612 | 4137 ft | 274 kts | 87° |
| 2026-05-07 06:28 | 41.70506 | -70.60200 | 3633 ft | 257 kts | 123° |
| 2026-05-07 06:28 | 41.69551 | -70.58237 | 3145 ft | 249 kts | 132° |
| 2026-05-07 06:28 | 41.68510 | -70.56396 | 2653 ft | 247 kts | 134° |
| 2026-05-07 06:29 | 41.67454 | -70.54637 | 2362 ft | 237 kts | 135° |
| 2026-05-07 06:29 | 41.66442 | -70.52977 | 2222 ft | 224 kts | 135° |
| 2026-05-07 06:29 | 41.65485 | -70.51407 | 2161 ft | 212 kts | 135° |
| 2026-05-07 06:29 | 41.64575 | -70.49922 | 2133 ft | 201 kts | 136° |
| 2026-05-07 06:30 | 41.63717 | -70.48502 | 2118 ft | 193 kts | 136° |
| 2026-05-07 06:30 | 41.62874 | -70.47090 | 2115 ft | 196 kts | 136° |
| 2026-05-07 06:30 | 41.62018 | -70.45665 | 2113 ft | 198 kts | 136° |
| 2026-05-07 06:30 | 41.61151 | -70.44227 | 2112 ft | 200 kts | 136° |
| 2026-05-07 06:31 | 41.60200 | -70.42926 | 2110 ft | 188 kts | 160° |
| 2026-05-07 06:31 | 41.59000 | -70.42376 | 2107 ft | 181 kts | 172° |
| 2026-05-07 06:31 | 41.57781 | -70.41944 | 2102 ft | 181 kts | 174° |
| 2026-05-07 06:31 | 41.56562 | -70.41557 | 2102 ft | 177 kts | 178° |
| 2026-05-07 06:32 | 41.55455 | -70.41893 | 2108 ft | 161 kts | 220° |
| 2026-05-07 06:32 | 41.54885 | -70.43101 | 2106 ft | 157 kts | 259° |
| 2026-05-07 06:32 | 41.54704 | -70.44508 | 2096 ft | 155 kts | 241° |
| 2026-05-07 06:32 | 41.53839 | -70.45347 | 2103 ft | 151 kts | 215° |
| 2026-05-07 06:33 | 41.52959 | -70.45943 | 2099 ft | 134 kts | 213° |
| 2026-05-07 06:33 | 41.52160 | -70.46454 | 2094 ft | 120 kts | 217° |
| 2026-05-07 06:33 | 41.51496 | -70.47022 | 2087 ft | 110 kts | 223° |
| 2026-05-07 06:33 | 41.50903 | -70.47626 | 2093 ft | 108 kts | 225° |
| 2026-05-07 06:34 | 41.50322 | -70.48250 | 2104 ft | 108 kts | 226° |
| 2026-05-07 06:34 | 41.49737 | -70.48879 | 2108 ft | 108 kts | 226° |
| 2026-05-07 06:34 | 41.49154 | -70.49512 | 2108 ft | 108 kts | 226° |
| 2026-05-07 06:34 | 41.48590 | -70.50170 | 2112 ft | 108 kts | 229° |
| 2026-05-07 06:35 | 41.48055 | -70.50864 | 2092 ft | 107 kts | 232° |
| 2026-05-07 06:35 | 41.47540 | -70.51584 | 2097 ft | 108 kts | 233° |
| 2026-05-07 06:35 | 41.47029 | -70.52310 | 1957 ft | 103 kts | 233° |
| 2026-05-07 06:35 | 41.46550 | -70.52968 | 1816 ft | 96 kts | 231° |
| 2026-05-07 06:36 | 41.46070 | -70.53575 | 1652 ft | 94 kts | 229° |
| 2026-05-07 06:36 | 41.45570 | -70.54139 | 1476 ft | 94 kts | 226° |
| 2026-05-07 06:36 | 41.45052 | -70.54675 | 1317 ft | 95 kts | 224° |
| 2026-05-07 06:36 | 41.44518 | -70.55191 | 1159 ft | 96 kts | 222° |
| 2026-05-07 06:37 | 41.44015 | -70.55770 | 1059 ft | 96 kts | 229° |
| 2026-05-07 06:37 | 41.43542 | -70.56408 | 954 ft | 96 kts | 229° |
| 2026-05-07 06:37 | 41.43044 | -70.56985 | 844 ft | 92 kts | 223° |
| 2026-05-07 06:37 | 41.42552 | -70.57473 | 749 ft | 85 kts | 221° |
| 2026-05-07 06:38 | 41.42104 | -70.57940 | 668 ft | 77 kts | 220° |
| 2026-05-07 06:38 | 41.41699 | -70.58394 | 557 ft | 78 kts | 220° |
| 2026-05-07 06:38 | 41.41332 | -70.58856 | 529 ft | 70 kts | 220° |
| 2026-05-07 06:38 | 41.41075 | -70.59174 | 476 ft | 72 kts | 217° |
| 2026-05-07 06:39 | 41.40689 | -70.59611 | 369 ft | 75 kts | 217° |
| 2026-05-07 06:39 | 41.40304 | -70.60072 | 242 ft | 72 kts | 219° |
| 2026-05-07 06:39 | 41.39935 | -70.60492 | 120 ft | 70 kts | 216° |
| 2026-05-07 06:39 | 41.39603 | -70.60868 | 64 ft | 54 kts | 220° |
| 2026-05-07 06:40 | 41.39445 | -70.61051 | 63 ft | 12 kts | 227° |
| 2026-05-07 06:40 | 41.39366 | -70.61142 | 64 ft | 16 kts | 221° |
| 2026-05-07 06:40 | 41.39289 | -70.61220 | 64 ft | 11 kts | 173° |
| 2026-05-07 06:40 | 41.39248 | -70.61160 | 63 ft | 13 kts | 127° |
| 2026-05-07 06:41 | 41.39200 | -70.61138 | 63 ft | 9 kts | 219° |
| 2026-05-07 06:41 | 41.39155 | -70.61192 | 61 ft | 8 kts | 220° |
| 2026-05-07 06:41 | 41.39111 | -70.61241 | 61 ft | 8 kts | 219° |
| 2026-05-07 06:41 | 41.39061 | -70.61296 | 60 ft | 10 kts | 220° |
| 2026-05-07 06:42 | 41.39001 | -70.61364 | 63 ft | 13 kts | 220° |
| 2026-05-07 06:42 | 41.38928 | -70.61449 | 61 ft | 15 kts | 222° |
| 2026-05-07 06:42 | 41.38850 | -70.61502 | 60 ft | 13 kts | 169° |
| 2026-05-07 06:42 | 41.38809 | -70.61461 | 63 ft | 5 kts | 103° |
| 2026-05-07 06:43 | 41.38825 | -70.61435 | 58 ft | 2 kts | 41° |
| 2026-05-07 06:43 | 41.38826 | -70.61434 | 58 ft | 0 kts | 40° |